17J

Donalsonville Municipal Airport

Donalsonville, Georgia, USA
METAR K17J 190630Z AUTO 19005KT 4SM BR OVC005 15/15 A3002 RMK AO2 T01510149
Observed Flight Rules
Jan-19 @ 06:30 UTC (24 minutes ago) Instrument Flight Rules
Wind Visibility Clouds Conditions
190° at 5 knots 4 miles
  • Overcast at 500' AGL
  • Mist
Temperatures Readings
Current 15°C / 59°F
Dewpoint 15°C / 59°F
Humidity 100%
Altimeter 30.02" Hg
Pressure 1016.62 hPa
Elevation 45
METAR K17J 190630Z AUTO 19005KT 4SM BR OVC005 15/15 A3002 RMK AO2 T01510149
Observed Flight Rules
Jan-19 @ 06:30 UTC
(24 minutes ago)
IFR
Wind Visibility
190° at 5 knots 4 miles
Clouds
  • Overcast at 500' AGL
Conditions
  • Mist
Temperature Dewpoint
15°C / 59°F 15°C / 59°F
Humidity Altimeter Pressure
100% 30.02" Hg 1016.62 hPa